X  Close Metar Aviation Weather Data        LGTS Thessaloniki Macedonia International
Temperature
11°C Temperature
11°C Dewpoint
100% Humidity



Wind
5 MPH
7 KM/H
2 M/S
4 KTS



250°
WSW
Current Conditions

Partly Cloudy Partly Cloudy
Pressure 1011 (hPa) - 29.85 (inHg)
Visibility 5 (mile) - 8 (km)
Airport
Airport-code LGTS

Location: Thessaloniki Macedonia International
Distance: 85 (mi)

Metar:
METAR LGTS 020020Z 25004KT 8000 SCT006 SCT020 11/11 Q1011 NOSIG

Time: 02-03-2024 02:20 EET